createdAt,value
2022-12-26T00:00:31.833Z,100488.81
2022-12-26T00:02:58.701Z,100490.56
2022-12-26T00:05:25.483Z,100484.72
2022-12-26T00:07:52.228Z,100484.00
2022-12-26T00:10:19.096Z,100486.66
2022-12-26T00:12:45.855Z,100480.00
2022-12-26T00:15:12.599Z,100477.47
2022-12-26T00:17:39.425Z,100477.47
2022-12-26T00:20:06.605Z,100483.44
2022-12-26T00:22:34.489Z,100491.22
2022-12-26T00:25:01.228Z,100492.31
2022-12-26T00:27:29.903Z,100490.28
2022-12-26T00:29:56.758Z,100492.41
2022-12-26T00:32:23.584Z,100494.28
2022-12-26T00:34:50.337Z,100501.28
2022-12-26T00:37:17.085Z,100500.31
2022-12-26T00:39:43.905Z,100507.13
2022-12-26T00:42:10.996Z,100508.69
2022-12-26T00:44:37.703Z,100514.38
2022-12-26T00:47:04.490Z,100504.97
2022-12-26T00:50:13.764Z,100523.53
2022-12-26T00:52:18.105Z,100518.66
2022-12-26T00:54:44.912Z,100513.00
2022-12-26T00:57:11.897Z,100516.91
2022-12-26T00:59:38.657Z,100519.63
2022-12-26T01:02:25.440Z,100517.28
2022-12-26T01:04:52.373Z,100520.63
2022-12-26T01:07:19.161Z,100525.69
2022-12-26T01:09:45.937Z,100529.19
2022-12-26T01:12:12.739Z,100523.63
2022-12-26T01:14:39.530Z,100518.88
2022-12-26T01:17:06.289Z,100511.63
2022-12-26T01:19:32.971Z,100516.22
2022-12-26T01:21:59.747Z,100515.56
2022-12-26T01:24:26.522Z,100517.28
2022-12-26T01:26:53.261Z,100521.59
2022-12-26T01:29:20.101Z,100524.34
2022-12-26T01:31:46.982Z,100517.69
2022-12-26T01:34:15.031Z,100518.66
2022-12-26T01:36:41.716Z,100519.63
2022-12-26T01:39:08.713Z,100525.50
2022-12-26T01:41:35.527Z,100528.13
2022-12-26T01:44:06.592Z,100527.44
2022-12-26T01:46:35.944Z,100526.47
2022-12-26T01:49:11.742Z,100527.53
2022-12-26T01:51:41.383Z,100534.19
2022-12-26T01:54:39.856Z,100524.09
2022-12-26T01:56:58.373Z,100530.75
2022-12-26T01:59:28.417Z,100526.66
2022-12-26T02:01:55.719Z,100532.31
2022-12-26T02:04:54.598Z,100533.28
2022-12-26T02:07:22.277Z,100531.34
2022-12-26T02:09:49.274Z,100529.47
2022-12-26T02:12:34.834Z,100519.63
2022-12-26T02:15:24.721Z,100527.63
2022-12-26T02:17:51.472Z,100520.03
2022-12-26T02:20:28.114Z,100519.63
2022-12-26T02:23:15.655Z,100514.19
2022-12-26T02:26:00.596Z,100511.53
2022-12-26T02:28:53.237Z,100509.28
2022-12-26T02:32:00.084Z,100517.97
2022-12-26T02:35:09.840Z,100517.19
2022-12-26T02:38:16.385Z,100519.84
2022-12-26T02:40:51.887Z,100519.25
2022-12-26T02:43:42.617Z,100523.13
2022-12-26T02:46:44.353Z,100521.41
2022-12-26T02:49:25.982Z,100516.31
2022-12-26T02:52:24.724Z,100527.16
2022-12-26T02:55:10.066Z,100526.28
2022-12-26T02:58:04.495Z,100524.69
2022-12-26T03:00:52.250Z,100517.50
2022-12-26T03:03:41.008Z,100525.69
2022-12-26T03:06:37.384Z,100515.91
2022-12-26T03:09:27.572Z,100526.06
2022-12-26T03:12:22.280Z,100517.91
2022-12-26T03:14:53.887Z,100522.34
2022-12-26T03:17:53.159Z,100530.28
2022-12-26T03:20:33.061Z,100535.84
2022-12-26T03:23:07.977Z,100540.72
2022-12-26T03:26:02.998Z,100538.94
2022-12-26T03:28:30.371Z,100542.94
2022-12-26T03:31:02.031Z,100538.19
2022-12-26T03:33:50.982Z,100535.63
2022-12-26T03:36:43.701Z,100530.38
2022-12-26T03:39:51.473Z,100530.38
2022-12-26T03:43:04.499Z,100527.84
2022-12-26T03:46:15.970Z,100526.47
2022-12-26T03:49:28.262Z,100529.13
2022-12-26T03:52:38.177Z,100526.47
2022-12-26T03:55:45.182Z,100529.41
2022-12-26T03:59:03.763Z,100529.78
2022-12-26T04:01:52.685Z,100529.41
2022-12-26T04:04:40.983Z,100534.47
2022-12-26T04:07:58.256Z,100538.38
2022-12-26T04:10:55.830Z,100539.94
2022-12-26T04:13:48.639Z,100546.38
2022-12-26T04:16:59.984Z,100544.25
2022-12-26T04:20:05.615Z,100545.88
2022-12-26T04:23:23.508Z,100544.25
2022-12-26T04:26:16.499Z,100538.00
2022-12-26T04:29:01.733Z,100534.47
2022-12-26T04:31:52.922Z,100533.13
2022-12-26T04:34:45.890Z,100538.19
2022-12-26T04:37:41.588Z,100533.19
2022-12-26T04:40:33.886Z,100543.28
2022-12-26T04:43:48.208Z,100548.13
2022-12-26T04:46:08.572Z,100545.50
2022-12-26T04:49:02.149Z,100550.09
2022-12-26T04:51:28.878Z,100549.72
2022-12-26T04:53:55.672Z,100553.00
2022-12-26T04:56:22.473Z,100549.00
2022-12-26T04:58:49.309Z,100568.66
2022-12-26T05:01:34.643Z,100566.88
2022-12-26T05:04:20.036Z,100561.59
2022-12-26T05:07:05.270Z,100565.91
2022-12-26T05:09:34.812Z,100573.50
2022-12-26T05:12:09.272Z,100567.06
2022-12-26T05:14:36.806Z,100578.78
2022-12-26T05:17:23.838Z,100579.66
2022-12-26T05:20:09.491Z,100584.53
2022-12-26T05:23:01.468Z,100582.09
2022-12-26T05:25:54.341Z,100579.56
2022-12-26T05:28:40.055Z,100575.84
2022-12-26T05:31:07.236Z,100574.88
2022-12-26T05:33:52.498Z,100578.00
2022-12-26T05:36:21.671Z,100583.06
2022-12-26T05:38:49.065Z,100579.53
2022-12-26T05:41:16.441Z,100577.19
2022-12-26T05:43:43.318Z,100577.91
2022-12-26T05:46:10.187Z,100585.50
2022-12-26T05:48:36.962Z,100589.03
2022-12-26T05:51:04.809Z,100587.56
2022-12-26T05:53:32.783Z,100579.06
2022-12-26T05:56:08.024Z,100581.34
2022-12-26T05:58:34.756Z,100585.03
2022-12-26T06:01:16.781Z,100582.09
2022-12-26T06:03:47.779Z,100587.66
2022-12-26T06:06:15.096Z,100586.38
2022-12-26T06:08:42.197Z,100585.19
2022-12-26T06:11:12.597Z,100585.78
2022-12-26T06:13:40.985Z,100590.44
2022-12-26T06:16:13.757Z,100587.84
2022-12-26T06:18:41.403Z,100587.41
2022-12-26T06:21:13.770Z,100593.34
2022-12-26T06:23:40.845Z,100594.06
2022-12-26T06:26:10.428Z,100589.66
2022-12-26T06:28:38.346Z,100593.72
2022-12-26T06:31:20.755Z,100601.75
2022-12-26T06:33:49.875Z,100615.69
2022-12-26T06:36:19.918Z,100618.53
2022-12-26T06:38:47.065Z,100611.91
2022-12-26T06:41:16.854Z,100615.63
2022-12-26T06:43:43.711Z,100620.88
2022-12-26T06:46:14.713Z,100633.78
2022-12-26T06:48:41.670Z,100640.41
2022-12-26T06:51:12.830Z,100635.53
2022-12-26T06:53:39.670Z,100640.63
2022-12-26T06:56:11.969Z,100636.53
2022-12-26T06:58:38.922Z,100651.75
2022-12-26T07:01:13.972Z,100657.41
2022-12-26T07:03:48.554Z,100658.56
2022-12-26T07:06:25.669Z,100647.28
2022-12-26T07:08:54.347Z,100648.13
2022-12-26T07:11:24.162Z,100639.06
2022-12-26T07:13:51.755Z,100640.75
2022-12-26T07:16:18.536Z,100651.75
2022-12-26T07:18:45.402Z,100645.91
2022-12-26T07:21:14.609Z,100641.91
2022-12-26T07:23:41.890Z,100642.56
2022-12-26T07:26:09.283Z,100644.34
2022-12-26T07:28:36.067Z,100647.66
2022-12-26T07:31:03.995Z,100651.00
2022-12-26T07:33:30.798Z,100654.97
2022-12-26T07:36:01.100Z,100657.41
2022-12-26T07:38:27.926Z,100651.75
2022-12-26T07:40:58.306Z,100656.34
2022-12-26T07:43:26.038Z,100662.28
2022-12-26T07:45:53.009Z,100656.53
2022-12-26T07:48:19.792Z,100663.47
2022-12-26T07:50:47.415Z,100655.84
2022-12-26T07:53:15.208Z,100657.81
2022-12-26T07:55:42.682Z,100661.53
2022-12-26T07:58:09.553Z,100653.16
2022-12-26T08:00:36.328Z,100660.00
2022-12-26T08:03:07.443Z,100648.06
2022-12-26T08:05:34.903Z,100655.69
2022-12-26T08:08:01.816Z,100656.00
2022-12-26T08:10:28.645Z,100663.88
2022-12-26T08:12:55.640Z,100664.09
2022-12-26T08:15:22.554Z,100674.63
2022-12-26T08:17:49.262Z,100675.53
2022-12-26T08:20:16.155Z,100681.47
2022-12-26T08:22:42.874Z,100670.75
2022-12-26T08:25:10.110Z,100664.91
2022-12-26T08:27:37.031Z,100670.63
2022-12-26T08:30:05.038Z,100666.47
2022-12-26T08:32:31.908Z,100669.19
2022-12-26T08:34:58.692Z,100665.06
2022-12-26T08:37:25.524Z,100665.06
2022-12-26T08:39:53.647Z,100667.59
2022-12-26T08:42:21.479Z,100666.84
2022-12-26T08:44:48.793Z,100661.56
2022-12-26T08:47:15.963Z,100668.19
2022-12-26T08:49:42.722Z,100664.69
2022-12-26T08:52:09.720Z,100666.84
2022-12-26T08:54:36.507Z,100667.78
2022-12-26T08:57:03.302Z,100663.34
2022-12-26T08:59:30.097Z,100661.47
2022-12-26T09:01:56.969Z,100662.41
2022-12-26T09:04:23.821Z,100662.50
2022-12-26T09:06:50.654Z,100666.84
2022-12-26T09:09:17.608Z,100671.13
2022-12-26T09:11:44.577Z,100675.06
2022-12-26T09:14:11.867Z,100670.00
2022-12-26T09:16:50.347Z,100671.34
2022-12-26T09:19:19.518Z,100669.16
2022-12-26T09:21:47.773Z,100677.53
2022-12-26T09:24:17.299Z,100679.28
2022-12-26T09:26:44.628Z,100676.31
2022-12-26T09:29:12.933Z,100671.38
2022-12-26T09:31:39.813Z,100669.16
2022-12-26T09:34:07.188Z,100676.50
2022-12-26T09:36:38.164Z,100671.94
2022-12-26T09:39:05.506Z,100662.03
2022-12-26T09:41:38.173Z,100666.63
2022-12-26T09:44:13.759Z,100665.28
2022-12-26T09:46:48.772Z,100652.28
2022-12-26T09:49:27.405Z,100654.91
2022-12-26T09:51:58.867Z,100653.06
2022-12-26T09:54:37.465Z,100656.25
2022-12-26T09:57:18.408Z,100649.72
2022-12-26T09:59:55.563Z,100653.94
2022-12-26T10:02:25.465Z,100647.06
2022-12-26T10:04:54.758Z,100646.31
2022-12-26T10:07:34.102Z,100639.72
2022-12-26T10:10:28.234Z,100644.59
2022-12-26T10:13:06.225Z,100650.03
2022-12-26T10:15:46.481Z,100647.34
2022-12-26T10:18:31.658Z,100646.09
2022-12-26T10:21:26.321Z,100647.53
2022-12-26T10:23:58.910Z,100643.72
2022-12-26T10:26:31.754Z,100650.78
2022-12-26T10:29:18.301Z,100640.69
2022-12-26T10:31:50.867Z,100640.03
2022-12-26T10:34:24.109Z,100632.94
2022-12-26T10:37:01.278Z,100628.16
2022-12-26T10:39:38.461Z,100631.97
2022-12-26T10:42:38.395Z,100631.81
2022-12-26T10:45:45.277Z,100620.13
2022-12-26T10:48:16.341Z,100623.53
2022-12-26T10:50:49.213Z,100624.81
2022-12-26T10:53:17.216Z,100616.03
2022-12-26T10:55:44.567Z,100617.91
2022-12-26T10:58:30.934Z,100619.38
2022-12-26T11:01:17.747Z,100621.78
2022-12-26T11:04:02.798Z,100617.78
2022-12-26T11:06:41.838Z,100613.47
2022-12-26T11:09:28.644Z,100621.81
2022-12-26T11:11:55.763Z,100617.38
2022-12-26T11:14:34.059Z,100620.19
2022-12-26T11:17:28.755Z,100620.63
2022-12-26T11:20:10.787Z,100622.59
2022-12-26T11:22:38.468Z,100626.78
2022-12-26T11:25:10.978Z,100618.13
2022-12-26T11:27:41.445Z,100620.66
2022-12-26T11:30:14.130Z,100615.22
2022-12-26T11:32:42.951Z,100610.94
2022-12-26T11:35:26.152Z,100613.84
2022-12-26T11:37:56.222Z,100610.81
2022-12-26T11:40:37.060Z,100617.63
2022-12-26T11:43:07.585Z,100613.25
2022-12-26T11:45:42.571Z,100612.28
2022-12-26T11:48:24.732Z,100621.63
2022-12-26T11:50:52.389Z,100606.72
2022-12-26T11:53:22.102Z,100614.38
2022-12-26T11:56:08.715Z,100617.47
2022-12-26T11:58:36.120Z,100617.94
2022-12-26T12:01:06.460Z,100620.66
2022-12-26T12:03:48.635Z,100617.47
2022-12-26T12:06:53.006Z,100620.66
2022-12-26T12:09:25.606Z,100624.53
2022-12-26T12:12:29.351Z,100617.94
2022-12-26T12:15:03.420Z,100619.47
2022-12-26T12:17:39.374Z,100618.84
2022-12-26T12:20:50.266Z,100617.78
2022-12-26T12:23:21.109Z,100620.41
2022-12-26T12:26:03.855Z,100621.56
2022-12-26T12:28:50.850Z,100617.94
2022-12-26T12:31:31.145Z,100616.06
2022-12-26T12:34:06.794Z,100615.84
2022-12-26T12:36:51.218Z,100622.28
2022-12-26T12:39:30.867Z,100620.28
2022-12-26T12:42:06.376Z,100626.91
2022-12-26T12:44:56.535Z,100623.63
2022-12-26T12:48:19.246Z,100622.47
2022-12-26T12:50:57.753Z,100618.97
2022-12-26T12:53:46.072Z,100612.56
2022-12-26T12:56:43.861Z,100616.88
2022-12-26T12:59:42.963Z,100616.78
2022-12-26T13:02:29.290Z,100609.34
2022-12-26T13:05:25.582Z,100614.22
2022-12-26T13:08:08.247Z,100609.16
2022-12-26T13:10:42.664Z,100605.63
2022-12-26T13:13:38.613Z,100605.28
2022-12-26T13:16:13.051Z,100605.94
2022-12-26T13:18:49.331Z,100604.25
2022-12-26T13:21:16.923Z,100607.38
2022-12-26T13:24:11.526Z,100615.84
2022-12-26T13:26:43.594Z,100621.94
2022-12-26T13:29:19.380Z,100617.44
2022-12-26T13:31:46.765Z,100612.72
2022-12-26T13:34:18.734Z,100627.25
2022-12-26T13:36:51.276Z,100625.94
2022-12-26T13:39:23.931Z,100625.94
2022-12-26T13:42:18.940Z,100625.75
2022-12-26T13:44:50.009Z,100632.34
2022-12-26T13:47:36.490Z,100619.34
2022-12-26T13:50:40.609Z,100623.72
2022-12-26T13:53:37.281Z,100621.53
2022-12-26T13:56:19.296Z,100617.00
2022-12-26T13:58:47.355Z,100617.78
2022-12-26T14:01:38.148Z,100617.34
2022-12-26T14:04:37.941Z,100620.44
2022-12-26T14:07:25.574Z,100618.69
2022-12-26T14:10:04.127Z,100610.31
2022-12-26T14:13:09.160Z,100609.13
2022-12-26T14:15:58.079Z,100613.84
2022-12-26T14:18:33.561Z,100613.44
2022-12-26T14:21:21.389Z,100605.59
2022-12-26T14:23:54.458Z,100606.38
2022-12-26T14:26:28.760Z,100603.31
2022-12-26T14:29:16.691Z,100599.09
2022-12-26T14:31:43.393Z,100599.75
2022-12-26T14:34:43.611Z,100603.81
2022-12-26T14:37:16.118Z,100600.06
2022-12-26T14:40:16.760Z,100595.75
2022-12-26T14:43:35.948Z,100590.09
2022-12-26T14:46:22.872Z,100590.25
2022-12-26T14:48:54.623Z,100587.59
2022-12-26T14:51:21.346Z,100588.97
2022-12-26T14:54:24.787Z,100603.47
2022-12-26T14:56:52.767Z,100599.09
2022-12-26T14:59:25.630Z,100598.22
2022-12-26T15:02:10.511Z,100593.59
2022-12-26T15:04:37.289Z,100588.97
2022-12-26T15:07:36.111Z,100586.97
2022-12-26T15:10:14.709Z,100583.47
2022-12-26T15:13:02.964Z,100580.34
2022-12-26T15:15:57.469Z,100577.63
2022-12-26T15:18:42.626Z,100574.88
2022-12-26T15:21:32.951Z,100571.78
2022-12-26T15:25:18.134Z,100570.22
2022-12-26T15:27:51.843Z,100568.50
2022-12-26T15:30:36.707Z,100564.53
2022-12-26T15:33:15.574Z,100577.53
2022-12-26T15:36:03.386Z,100570.72
2022-12-26T15:39:06.004Z,100565.84
2022-12-26T15:41:45.763Z,100572.47
2022-12-26T15:44:18.098Z,100567.00
2022-12-26T15:47:02.055Z,100568.75
2022-12-26T15:49:36.933Z,100569.53
2022-12-26T15:52:19.059Z,100578.03
2022-12-26T15:54:51.503Z,100570.31
2022-12-26T15:57:32.035Z,100561.06
2022-12-26T16:00:04.616Z,100565.91
2022-12-26T16:02:35.579Z,100560.22
2022-12-26T16:05:11.618Z,100558.03
2022-12-26T16:07:47.783Z,100556.16
2022-12-26T16:10:32.173Z,100554.94
2022-12-26T16:13:03.441Z,100552.75
2022-12-26T16:15:33.006Z,100554.06
2022-12-26T16:18:19.518Z,100547.56
2022-12-26T16:21:06.864Z,100547.16
2022-12-26T16:23:40.072Z,100553.88
2022-12-26T16:26:07.614Z,100549.78
2022-12-26T16:28:39.345Z,100547.69
2022-12-26T16:31:06.747Z,100558.47
2022-12-26T16:33:43.223Z,100560.34
2022-12-26T16:36:16.083Z,100559.00
2022-12-26T16:38:44.545Z,100555.38
2022-12-26T16:41:26.327Z,100556.28
2022-12-26T16:43:55.379Z,100562.31
2022-12-26T16:46:28.883Z,100564.84
2022-12-26T16:48:58.828Z,100569.69
2022-12-26T16:51:46.891Z,100567.34
2022-12-26T16:54:19.714Z,100562.84
2022-12-26T16:57:21.014Z,100567.25
2022-12-26T16:59:58.134Z,100550.09
2022-12-26T17:02:29.706Z,100550.97
2022-12-26T17:05:06.765Z,100541.88
2022-12-26T17:07:36.995Z,100542.63
2022-12-26T17:10:07.058Z,100539.56
2022-12-26T17:12:39.362Z,100543.53
2022-12-26T17:15:07.382Z,100537.59
2022-12-26T17:17:38.801Z,100541.56
2022-12-26T17:20:23.838Z,100539.56
2022-12-26T17:22:55.703Z,100537.34
2022-12-26T17:25:27.919Z,100541.09
2022-12-26T17:28:09.917Z,100539.13
2022-12-26T17:30:37.714Z,100539.34
2022-12-26T17:33:28.464Z,100534.28
2022-12-26T17:38:54.466Z,100522.97
2022-12-26T17:41:21.253Z,100520.63
2022-12-26T17:43:48.242Z,100525.50
2022-12-26T17:46:17.684Z,100527.03
2022-12-26T17:48:45.599Z,100527.03
2022-12-26T17:51:16.498Z,100527.78
2022-12-26T17:53:48.537Z,100521.88
2022-12-26T17:56:16.909Z,100520.22
2022-12-26T17:58:44.058Z,100522.06
2022-12-26T18:01:13.689Z,100520.44
2022-12-26T18:03:44.578Z,100527.25
2022-12-26T18:06:16.557Z,100513.84
2022-12-26T18:08:44.631Z,100514.59
2022-12-26T18:11:13.996Z,100512.63
2022-12-26T18:13:41.300Z,100512.50
2022-12-26T18:16:11.566Z,100508.31
2022-12-26T18:18:41.191Z,100511.97
2022-12-26T18:21:10.155Z,100498.44
2022-12-26T18:23:37.768Z,100503.50
2022-12-26T18:26:07.983Z,100492.75
2022-12-26T18:28:35.554Z,100491.22
2022-12-26T18:31:02.402Z,100488.78
2022-12-26T18:33:29.153Z,100491.63
2022-12-26T18:35:56.443Z,100487.44
2022-12-26T18:38:23.237Z,100477.34
2022-12-26T18:40:54.713Z,100469.88
2022-12-26T18:43:21.521Z,100472.38
2022-12-26T18:45:48.331Z,100476.56
2022-12-26T18:48:16.839Z,100476.56
2022-12-26T18:50:43.971Z,100482.38
2022-12-26T18:53:11.366Z,100480.88
2022-12-26T18:55:38.999Z,100478.25
2022-12-26T18:58:06.504Z,100479.78
2022-12-26T19:00:33.290Z,100473.63
2022-12-26T19:03:00.071Z,100476.69
2022-12-26T19:05:31.164Z,100476.69
2022-12-26T19:07:59.130Z,100472.19
2022-12-26T19:10:29.581Z,100479.78
2022-12-26T19:13:02.886Z,100479.66
2022-12-26T19:15:36.328Z,100472.94
2022-12-26T19:18:04.574Z,100469.66
2022-12-26T19:20:31.467Z,100466.16
2022-12-26T19:22:58.325Z,100458.56
2022-12-26T19:25:25.939Z,100458.44
2022-12-26T19:27:53.575Z,100449.22
2022-12-26T19:30:21.696Z,100445.38
2022-12-26T19:32:49.786Z,100449.84
2022-12-26T19:35:17.340Z,100450.97
2022-12-26T19:37:44.650Z,100444.81
2022-12-26T19:40:12.669Z,100442.84
2022-12-26T19:42:39.757Z,100439.56
2022-12-26T19:45:09.556Z,100427.91
2022-12-26T19:47:36.928Z,100431.97
2022-12-26T19:50:05.378Z,100426.34
2022-12-26T19:52:32.582Z,100426.25
2022-12-26T19:54:59.436Z,100418.00
2022-12-26T19:57:26.295Z,100412.28
2022-12-26T19:59:53.105Z,100412.84
2022-12-26T20:02:20.107Z,100416.91
2022-12-26T20:04:46.959Z,100411.19
2022-12-26T20:07:13.786Z,100414.69
2022-12-26T20:09:40.567Z,100414.69
2022-12-26T20:12:07.459Z,100408.09
2022-12-26T20:14:34.403Z,100398.88
2022-12-26T20:17:06.036Z,100405.03
2022-12-26T20:19:34.267Z,100399.28
2022-12-26T20:22:01.049Z,100402.16
2022-12-26T20:24:27.860Z,100403.03
2022-12-26T20:26:54.649Z,100394.34
2022-12-26T20:29:21.752Z,100396.44
2022-12-26T20:31:49.468Z,100402.84
2022-12-26T20:34:16.607Z,100396.25
2022-12-26T20:36:43.524Z,100402.38
2022-12-26T20:39:16.528Z,100392.69
2022-12-26T20:41:43.671Z,100393.78
2022-12-26T20:44:13.297Z,100387.97
2022-12-26T20:46:41.162Z,100392.47
2022-12-26T20:49:08.070Z,100386.31
2022-12-26T20:51:37.816Z,100391.94
2022-12-26T20:54:06.886Z,100387.69
2022-12-26T20:56:34.710Z,100385.91
2022-12-26T20:59:01.659Z,100392.28
2022-12-26T21:01:29.120Z,100395.59
2022-12-26T21:03:57.459Z,100390.75
2022-12-26T21:06:27.759Z,100394.47
2022-12-26T21:08:56.406Z,100401.50
2022-12-26T21:11:36.102Z,100388.31
2022-12-26T21:14:10.524Z,100388.66
2022-12-26T21:16:40.520Z,100395.78
2022-12-26T21:19:12.537Z,100397.13
2022-12-26T21:21:44.337Z,100393.44
2022-12-26T21:24:20.167Z,100388.16
2022-12-26T21:26:47.544Z,100389.72
2022-12-26T21:29:18.488Z,100386.41
2022-12-26T21:31:45.905Z,100386.22
2022-12-26T21:34:15.575Z,100382.03
2022-12-26T21:37:03.347Z,100381.56
2022-12-26T21:39:30.756Z,100370.38
2022-12-26T21:41:57.807Z,100373.69
2022-12-26T21:44:24.617Z,100364.13
2022-12-26T21:46:51.389Z,100359.84
2022-12-26T21:49:18.278Z,100356.34
2022-12-26T21:51:45.016Z,100355.78
2022-12-26T21:54:30.320Z,100360.25
2022-12-26T21:56:57.068Z,100357.66
2022-12-26T21:59:42.469Z,100350.94
2022-12-26T22:02:33.634Z,100352.78
2022-12-26T22:05:01.697Z,100342.72
2022-12-26T22:07:28.934Z,100347.13
2022-12-26T22:09:55.710Z,100347.13
2022-12-26T22:12:41.099Z,100349.66
2022-12-26T22:15:31.258Z,100351.50
2022-12-26T22:17:58.153Z,100351.06
2022-12-26T22:20:25.438Z,100354.56
2022-12-26T22:22:52.299Z,100349.50
2022-12-26T22:25:19.901Z,100347.88
2022-12-26T22:27:46.720Z,100342.50
2022-12-26T22:30:13.613Z,100338.53
2022-12-26T22:32:40.519Z,100334.38
2022-12-26T22:35:11.854Z,100324.28
2022-12-26T22:37:41.584Z,100324.03
2022-12-26T22:40:08.942Z,100320.53
2022-12-26T22:42:35.690Z,100322.75
2022-12-26T22:45:02.436Z,100326.47
2022-12-26T22:47:30.549Z,100315.72
2022-12-26T22:49:57.312Z,100314.63
2022-12-26T22:52:24.112Z,100315.25
2022-12-26T22:54:50.832Z,100311.56
2022-12-26T22:57:17.595Z,100318.66
2022-12-26T23:00:11.388Z,100312.84
2022-12-26T23:02:31.972Z,100309.34
2022-12-26T23:04:59.113Z,100307.56
2022-12-26T23:07:26.047Z,100295.94
2022-12-26T23:09:53.144Z,100290.25
2022-12-26T23:12:38.830Z,100289.34
2022-12-26T23:15:06.274Z,100288.38
2022-12-26T23:17:55.987Z,100287.06
2022-12-26T23:20:45.184Z,100286.31
2022-12-26T23:23:12.226Z,100287.31
2022-12-26T23:25:39.674Z,100276.22
2022-12-26T23:28:25.074Z,100276.44
2022-12-26T23:30:51.972Z,100277.50
2022-12-26T23:33:18.782Z,100283.22
2022-12-26T23:35:45.517Z,100280.47
2022-12-26T23:38:12.209Z,100269.38
2022-12-26T23:40:38.956Z,100271.13
2022-12-26T23:43:05.737Z,100268.59
2022-12-26T23:45:32.440Z,100260.28
2022-12-26T23:47:59.177Z,100257.75
2022-12-26T23:50:25.946Z,100245.91
2022-12-26T23:52:52.652Z,100251.72
2022-12-26T23:55:19.432Z,100239.13
2022-12-26T23:57:46.340Z,100239.44
